createdAt,value
2019-05-10T00:00:24.453Z,75.73
2019-05-10T00:01:24.454Z,75.53
2019-05-10T00:02:24.431Z,75.73
2019-05-10T00:03:24.408Z,75.73
2019-05-10T00:04:24.401Z,75.43
2019-05-10T00:05:24.391Z,75.43
2019-05-10T00:06:24.380Z,75.23
2019-05-10T00:07:24.374Z,75.33
2019-05-10T00:08:24.361Z,75.26
2019-05-10T00:09:24.347Z,75.57
2019-05-10T00:10:24.338Z,75.57
2019-05-10T00:11:24.337Z,75.33
2019-05-10T00:12:24.316Z,75.87
2019-05-10T00:13:24.314Z,75.98
2019-05-10T00:14:24.295Z,75.53
2019-05-10T00:15:24.284Z,75.77
2019-05-10T00:16:24.270Z,76.38
2019-05-10T00:17:24.264Z,75.57
2019-05-10T00:18:24.249Z,75.67
2019-05-10T00:19:24.241Z,76.04
2019-05-10T00:20:24.231Z,75.63
2019-05-10T00:21:24.220Z,75.67
2019-05-10T00:22:24.224Z,75.67
2019-05-10T00:23:24.193Z,76.18
2019-05-10T00:24:24.188Z,76.07
2019-05-10T00:25:24.173Z,76.14
2019-05-10T00:26:24.167Z,76.04
2019-05-10T00:27:24.169Z,76.99
2019-05-10T00:28:24.145Z,76.89
2019-05-10T00:29:24.130Z,76.45
2019-05-10T00:30:24.125Z,76.68
2019-05-10T00:31:24.110Z,75.94
2019-05-10T00:32:24.105Z,76.25
2019-05-10T00:33:24.100Z,76.55
2019-05-10T00:34:24.076Z,76.04
2019-05-10T00:35:24.070Z,76.04
2019-05-10T00:36:24.055Z,75.94
2019-05-10T00:37:24.053Z,75.98
2019-05-10T00:38:24.064Z,75.94
2019-05-10T00:39:24.022Z,76.18
2019-05-10T00:40:24.017Z,76.07
2019-05-10T00:41:24.004Z,75.98
2019-05-10T00:42:23.997Z,76.89
2019-05-10T00:43:23.982Z,76.28
2019-05-10T00:44:23.980Z,76.48
2019-05-10T00:45:23.960Z,76.28
2019-05-10T00:46:23.960Z,76.48
2019-05-10T00:47:23.937Z,76.68
2019-05-10T00:48:23.970Z,76.59
2019-05-10T00:49:23.916Z,76.89
2019-05-10T00:50:23.905Z,76.38
2019-05-10T00:51:23.900Z,76.14
2019-05-10T00:52:23.884Z,76.45
2019-05-10T00:53:23.878Z,76.48
2019-05-10T00:54:23.880Z,76.34
2019-05-10T00:55:23.857Z,76.89
2019-05-10T00:56:23.850Z,76.48
2019-05-10T00:57:23.840Z,77.09
2019-05-10T00:58:23.825Z,76.65
2019-05-10T00:59:23.819Z,76.34
2019-05-10T01:00:23.810Z,76.28
2019-05-10T01:01:23.803Z,76.55
2019-05-10T01:02:23.786Z,76.75
2019-05-10T01:03:23.769Z,76.79
2019-05-10T01:04:23.802Z,76.65
2019-05-10T01:05:23.746Z,76.18
2019-05-10T01:06:23.740Z,76.48
2019-05-10T01:07:23.730Z,76.45
2019-05-10T01:08:23.715Z,76.48
2019-05-10T01:09:23.706Z,75.84
2019-05-10T01:10:23.705Z,75.77
2019-05-10T01:11:23.689Z,75.77
2019-05-10T01:12:23.676Z,75.67
2019-05-10T01:13:23.670Z,75.87
2019-05-10T01:14:23.657Z,75.67
2019-05-10T01:15:23.653Z,75.37
2019-05-10T01:16:23.635Z,75.57
2019-05-10T01:17:23.621Z,75.57
2019-05-10T01:18:23.617Z,75.63
2019-05-10T01:19:23.600Z,75.57
2019-05-10T01:20:23.593Z,75.43
2019-05-10T01:21:23.579Z,75.87
2019-05-10T01:22:23.564Z,76.18
2019-05-10T01:23:23.560Z,76.48
2019-05-10T01:24:23.542Z,75.98
2019-05-10T01:25:34.850Z,76.95
2019-05-10T01:26:24.524Z,76.79
2019-05-10T01:27:23.783Z,76.89
2019-05-10T01:28:23.504Z,76.68
2019-05-10T01:29:23.495Z,76.28
2019-05-10T01:30:23.495Z,76.18
2019-05-10T01:31:23.483Z,76.07
2019-05-10T01:32:23.459Z,76.28
2019-05-10T01:33:23.451Z,76.07
2019-05-10T01:34:23.442Z,74.85
2019-05-10T01:35:23.490Z,74.96
2019-05-10T01:36:23.423Z,74.85
2019-05-10T01:37:23.474Z,75.37
2019-05-10T01:38:23.392Z,75.46
2019-05-10T01:39:23.389Z,74.96
2019-05-10T01:40:23.377Z,74.65
2019-05-10T01:41:23.392Z,74.65
2019-05-10T01:42:23.385Z,74.76
2019-05-10T01:43:23.345Z,74.85
2019-05-10T01:44:23.328Z,74.96
2019-05-10T01:45:23.323Z,75.16
2019-05-10T01:46:23.307Z,73.63
2019-05-10T01:47:23.311Z,73.94
2019-05-10T01:48:23.292Z,73.54
2019-05-10T01:49:23.274Z,73.84
2019-05-10T01:50:23.264Z,73.33
2019-05-10T01:51:23.253Z,73.33
2019-05-10T01:52:23.283Z,73.23
2019-05-10T01:53:23.238Z,73.23
2019-05-10T01:54:23.226Z,73.23
2019-05-10T01:55:31.013Z,72.92
2019-05-10T01:56:23.209Z,73.13
2019-05-10T01:57:23.191Z,73.33
2019-05-10T01:58:23.186Z,73.33
2019-05-10T01:59:23.171Z,73.74
2019-05-10T02:00:23.161Z,73.54
2019-05-10T02:01:23.155Z,73.63
2019-05-10T02:02:23.176Z,73.13
2019-05-10T02:03:23.219Z,72.92
2019-05-10T02:04:23.115Z,72.41
2019-05-10T02:05:23.110Z,72.21
2019-05-10T02:06:23.091Z,72.82
2019-05-10T02:07:23.083Z,72.82
2019-05-10T02:08:23.080Z,72.82
2019-05-10T02:09:23.070Z,72.01
2019-05-10T02:10:23.049Z,71.60
2019-05-10T02:11:23.044Z,71.91
2019-05-10T02:12:23.033Z,72.31
2019-05-10T02:13:23.033Z,71.91
2019-05-10T02:14:23.011Z,71.50
2019-05-10T02:15:23.003Z,71.80
2019-05-10T02:16:22.984Z,71.50
2019-05-10T02:17:22.976Z,71.30
2019-05-10T02:18:22.979Z,71.60
2019-05-10T02:19:22.972Z,72.21
2019-05-10T02:20:22.948Z,70.99
2019-05-10T02:21:22.941Z,71.53
2019-05-10T02:22:22.920Z,70.99
2019-05-10T02:23:22.912Z,71.70
2019-05-10T02:24:22.917Z,71.12
2019-05-10T02:25:22.893Z,71.53
2019-05-10T02:26:22.881Z,71.12
2019-05-10T02:27:22.877Z,71.12
2019-05-10T02:28:22.856Z,71.33
2019-05-10T02:29:22.850Z,71.33
2019-05-10T02:30:22.871Z,71.43
2019-05-10T02:31:22.836Z,71.23
2019-05-10T02:32:22.821Z,71.23
2019-05-10T02:33:22.805Z,71.12
2019-05-10T02:34:22.791Z,71.02
2019-05-10T02:35:22.785Z,71.12
2019-05-10T02:36:22.786Z,71.23
2019-05-10T02:37:22.758Z,71.43
2019-05-10T02:38:22.752Z,71.23
2019-05-10T02:39:22.754Z,71.33
2019-05-10T02:40:22.736Z,71.23
2019-05-10T02:41:22.720Z,71.33
2019-05-10T02:42:22.715Z,71.12
2019-05-10T02:43:22.702Z,71.23
2019-05-10T02:44:22.689Z,70.89
2019-05-10T02:45:22.677Z,71.02
2019-05-10T02:46:22.663Z,70.82
2019-05-10T02:47:22.657Z,70.82
2019-05-10T02:48:22.673Z,70.82
2019-05-10T02:49:22.637Z,71.09
2019-05-10T02:50:22.623Z,71.23
2019-05-10T02:51:22.613Z,71.12
2019-05-10T02:52:22.605Z,71.09
2019-05-10T02:53:22.592Z,71.12
2019-05-10T02:54:22.586Z,71.12
2019-05-10T02:55:22.574Z,71.64
2019-05-10T02:56:30.365Z,70.92
2019-05-10T02:57:23.542Z,71.23
2019-05-10T02:58:22.543Z,71.02
2019-05-10T02:59:22.531Z,71.12
2019-05-10T03:00:22.534Z,71.33
2019-05-10T03:01:22.500Z,71.50
2019-05-10T03:02:22.488Z,71.12
2019-05-10T03:03:22.487Z,70.82
2019-05-10T03:04:22.473Z,71.09
2019-05-10T03:05:22.473Z,71.09
2019-05-10T03:06:22.460Z,70.89
2019-05-10T03:07:22.440Z,70.89
2019-05-10T03:08:22.425Z,70.89
2019-05-10T03:09:22.430Z,70.89
2019-05-10T03:10:22.411Z,70.79
2019-05-10T03:11:22.408Z,70.89
2019-05-10T03:12:22.399Z,70.99
2019-05-10T03:13:27.004Z,70.79
2019-05-10T03:14:22.360Z,71.09
2019-05-10T03:15:22.352Z,70.79
2019-05-10T03:16:22.368Z,70.79
2019-05-10T03:17:22.329Z,70.58
2019-05-10T03:18:22.326Z,70.99
2019-05-10T03:19:22.330Z,71.50
2019-05-10T03:20:22.305Z,71.09
2019-05-10T03:21:22.301Z,71.19
2019-05-10T03:22:22.279Z,71.30
2019-05-10T03:23:22.315Z,70.99
2019-05-10T03:24:27.305Z,70.99
2019-05-10T03:25:23.240Z,71.80
2019-05-10T03:26:22.261Z,71.60
2019-05-10T03:27:22.224Z,71.09
2019-05-10T03:28:22.221Z,71.09
2019-05-10T03:29:22.205Z,71.09
2019-05-10T03:30:22.190Z,71.09
2019-05-10T03:31:22.183Z,71.09
2019-05-10T03:32:22.182Z,70.99
2019-05-10T03:33:22.163Z,71.50
2019-05-10T03:34:22.155Z,70.99
2019-05-10T03:35:22.141Z,71.30
2019-05-10T03:36:22.129Z,71.30
2019-05-10T03:37:22.145Z,71.30
2019-05-10T03:38:22.108Z,71.19
2019-05-10T03:39:22.095Z,71.19
2019-05-10T03:40:22.089Z,71.19
2019-05-10T03:41:22.073Z,70.99
2019-05-10T03:42:22.071Z,71.09
2019-05-10T03:43:22.069Z,71.60
2019-05-10T03:44:22.044Z,71.16
2019-05-10T03:45:22.097Z,71.60
2019-05-10T03:46:22.025Z,71.40
2019-05-10T03:47:22.008Z,71.60
2019-05-10T03:48:22.009Z,71.60
2019-05-10T03:49:22.009Z,71.50
2019-05-10T03:50:21.980Z,71.50
2019-05-10T03:51:21.963Z,71.19
2019-05-10T03:52:21.960Z,71.50
2019-05-10T03:53:21.973Z,71.40
2019-05-10T03:54:21.947Z,71.30
2019-05-10T03:55:21.937Z,72.25
2019-05-10T03:56:21.916Z,72.04
2019-05-10T03:57:21.911Z,71.64
2019-05-10T03:58:21.896Z,72.82
2019-05-10T03:59:21.898Z,72.25
2019-05-10T04:00:21.871Z,72.25
2019-05-10T04:01:21.863Z,72.34
2019-05-10T04:02:21.874Z,72.04
2019-05-10T04:03:21.841Z,71.94
2019-05-10T04:04:21.879Z,72.14
2019-05-10T04:05:21.814Z,72.21
2019-05-10T04:06:21.803Z,71.91
2019-05-10T04:07:21.792Z,71.91
2019-05-10T04:08:21.794Z,72.11
2019-05-10T04:09:21.775Z,71.60
2019-05-10T04:10:21.782Z,71.91
2019-05-10T04:11:21.756Z,72.31
2019-05-10T04:12:21.743Z,71.91
2019-05-10T04:13:21.732Z,72.41
2019-05-10T04:14:21.730Z,72.14
2019-05-10T04:15:21.721Z,72.86
2019-05-10T04:16:21.760Z,73.06
2019-05-10T04:17:21.710Z,72.86
2019-05-10T04:18:21.672Z,72.86
2019-05-10T04:19:21.666Z,73.57
2019-05-10T04:20:21.682Z,73.91
2019-05-10T04:21:21.645Z,73.77
2019-05-10T04:22:21.660Z,73.67
2019-05-10T04:23:21.625Z,73.71
2019-05-10T04:24:21.608Z,73.80
2019-05-10T04:25:21.619Z,73.71
2019-05-10T04:26:21.592Z,74.11
2019-05-10T04:27:31.426Z,74.11
2019-05-10T04:28:22.568Z,73.19
2019-05-10T04:29:21.560Z,74.21
2019-05-10T04:30:21.558Z,74.32
2019-05-10T04:31:21.550Z,73.80
2019-05-10T04:32:21.523Z,74.21
2019-05-10T04:33:21.519Z,74.01
2019-05-10T04:34:21.505Z,73.91
2019-05-10T04:35:21.492Z,74.11
2019-05-10T04:36:21.509Z,75.13
2019-05-10T04:37:21.470Z,75.13
2019-05-10T04:38:21.463Z,75.13
2019-05-10T04:39:21.452Z,75.02
2019-05-10T04:40:21.443Z,74.72
2019-05-10T04:41:21.432Z,74.82
2019-05-10T04:42:21.430Z,74.93
2019-05-10T04:43:21.414Z,74.93
2019-05-10T04:44:21.408Z,75.09
2019-05-10T04:45:21.392Z,74.01
2019-05-10T04:46:21.373Z,74.18
2019-05-10T04:47:21.377Z,73.97
2019-05-10T04:48:21.354Z,73.26
2019-05-10T04:49:21.339Z,73.26
2019-05-10T04:50:21.336Z,73.77
2019-05-10T04:51:21.331Z,74.08
2019-05-10T04:52:21.317Z,73.87
2019-05-10T04:53:21.311Z,73.57
2019-05-10T04:54:21.298Z,73.26
2019-05-10T04:55:21.282Z,73.36
2019-05-10T04:56:21.272Z,73.36
2019-05-10T04:57:21.269Z,73.36
2019-05-10T04:58:21.250Z,74.18
2019-05-10T04:59:21.238Z,73.77
2019-05-10T05:00:21.233Z,74.28
2019-05-10T05:01:21.220Z,73.87
2019-05-10T05:02:22.328Z,73.16
2019-05-10T05:03:21.192Z,74.18
2019-05-10T05:04:21.179Z,73.36
2019-05-10T05:05:21.175Z,73.47
2019-05-10T05:06:21.169Z,73.26
2019-05-10T05:07:21.189Z,74.04
2019-05-10T05:08:21.136Z,74.18
2019-05-10T05:09:21.125Z,74.08
2019-05-10T05:10:21.118Z,74.18
2019-05-10T05:11:21.102Z,73.16
2019-05-10T05:12:21.091Z,73.33
2019-05-10T05:13:21.088Z,73.74
2019-05-10T05:14:21.076Z,73.43
2019-05-10T05:15:21.124Z,73.33
2019-05-10T05:16:21.053Z,73.63
2019-05-10T05:17:21.039Z,73.63
2019-05-10T05:18:21.048Z,73.23
2019-05-10T05:19:21.026Z,73.54
2019-05-10T05:20:21.004Z,73.43
2019-05-10T05:21:21.005Z,73.09
2019-05-10T05:22:20.994Z,73.91
2019-05-10T05:23:20.993Z,73.39
2019-05-10T05:24:23.119Z,73.50
2019-05-10T05:25:22.176Z,73.43
2019-05-10T05:26:20.940Z,73.39
2019-05-10T05:27:20.933Z,73.60
2019-05-10T05:28:23.202Z,73.70
2019-05-10T05:29:20.914Z,73.70
2019-05-10T05:30:20.897Z,73.39
2019-05-10T05:31:20.897Z,73.50
2019-05-10T05:32:20.888Z,73.80
2019-05-10T05:33:20.873Z,73.80
2019-05-10T05:34:20.901Z,73.70
2019-05-10T05:35:20.849Z,73.70
2019-05-10T05:36:20.834Z,73.70
2019-05-10T05:37:20.826Z,73.70
2019-05-10T05:38:20.823Z,73.39
2019-05-10T05:39:20.801Z,73.70
2019-05-10T05:40:20.806Z,73.60
2019-05-10T05:41:20.779Z,73.87
2019-05-10T05:42:22.387Z,73.77
2019-05-10T05:43:21.758Z,73.57
2019-05-10T05:44:26.070Z,73.26
2019-05-10T05:45:21.744Z,73.16
2019-05-10T05:46:20.734Z,72.96
2019-05-10T05:47:20.716Z,72.85
2019-05-10T05:48:21.325Z,72.92
2019-05-10T05:49:20.696Z,71.80
2019-05-10T05:50:20.699Z,72.01
2019-05-10T05:51:20.682Z,72.92
2019-05-10T05:52:20.662Z,72.52
2019-05-10T05:53:22.525Z,72.72
2019-05-10T05:54:22.603Z,71.57
2019-05-10T05:55:22.979Z,71.67
2019-05-10T05:56:20.658Z,71.57
2019-05-10T05:57:22.145Z,71.64
2019-05-10T05:58:26.671Z,72.25
2019-05-10T05:59:24.010Z,71.84
2019-05-10T06:00:20.584Z,71.73
2019-05-10T06:01:26.364Z,71.80
2019-05-10T06:02:21.569Z,71.64
2019-05-10T06:03:27.466Z,71.23
2019-05-10T06:04:21.537Z,70.83
2019-05-10T06:05:34.285Z,70.72
2019-05-10T06:06:23.483Z,71.00
2019-05-10T06:07:20.499Z,71.33
2019-05-10T06:08:23.292Z,71.33
2019-05-10T06:09:20.478Z,71.13
2019-05-10T06:10:20.470Z,71.09
2019-05-10T06:11:20.456Z,71.40
2019-05-10T06:12:20.461Z,70.79
2019-05-10T06:13:23.437Z,71.09
2019-05-10T06:14:21.429Z,71.00
2019-05-10T06:15:22.995Z,71.60
2019-05-10T06:16:22.301Z,70.56
2019-05-10T06:17:23.682Z,70.86
2019-05-10T06:18:21.387Z,70.96
2019-05-10T06:19:28.768Z,70.65
2019-05-10T06:20:21.358Z,71.57
2019-05-10T06:21:25.092Z,72.78
2019-05-10T06:22:21.354Z,72.28
2019-05-10T06:23:20.370Z,69.95
2019-05-10T06:24:20.322Z,70.05
2019-05-10T06:25:37.633Z,70.25
2019-05-10T06:26:28.018Z,70.15
2019-05-10T06:27:21.290Z,69.92
2019-05-10T06:28:28.731Z,70.15
2019-05-10T06:29:21.276Z,70.15
2019-05-10T06:30:20.264Z,69.92
2019-05-10T06:31:20.316Z,70.01
2019-05-10T06:32:20.229Z,69.71
2019-05-10T06:33:20.218Z,70.05
2019-05-10T06:34:20.223Z,70.32
2019-05-10T06:35:20.886Z,70.93
2019-05-10T06:36:20.188Z,69.74
2019-05-10T06:37:20.188Z,70.12
2019-05-10T06:38:20.171Z,71.53
2019-05-10T06:39:20.178Z,70.52
2019-05-10T06:40:32.619Z,70.05
2019-05-10T06:41:21.140Z,70.52
2019-05-10T06:42:20.174Z,71.33
2019-05-10T06:43:20.125Z,70.62
2019-05-10T06:44:24.895Z,70.52
2019-05-10T06:45:21.101Z,68.70
2019-05-10T06:46:23.785Z,69.51
2019-05-10T06:47:21.984Z,68.40
2019-05-10T06:48:27.542Z,69.41
2019-05-10T06:49:21.049Z,69.71
2019-05-10T06:50:28.578Z,69.71
2019-05-10T06:51:21.032Z,69.61
2019-05-10T06:52:21.793Z,69.00
2019-05-10T06:53:23.311Z,70.01
2019-05-10T06:54:19.993Z,69.81
2019-05-10T06:55:19.986Z,69.92
2019-05-10T06:56:19.979Z,70.01
2019-05-10T06:57:19.981Z,70.01
2019-05-10T06:58:19.951Z,70.29
2019-05-10T06:59:24.780Z,69.17
2019-05-10T07:00:20.933Z,69.88
2019-05-10T07:01:19.942Z,69.81
2019-05-10T07:02:26.028Z,69.88
2019-05-10T07:03:20.895Z,70.79
2019-05-10T07:04:19.891Z,68.66
2019-05-10T07:05:19.880Z,69.48
2019-05-10T07:06:19.873Z,68.70
2019-05-10T07:07:33.086Z,69.57
2019-05-10T07:08:20.843Z,68.87
2019-05-10T07:09:19.830Z,68.87
2019-05-10T07:10:25.034Z,69.74
2019-05-10T07:11:20.817Z,69.44
2019-05-10T07:12:19.814Z,68.13
2019-05-10T07:13:19.791Z,68.46
2019-05-10T07:14:25.573Z,68.46
2019-05-10T07:15:20.769Z,68.46
2019-05-10T07:16:24.226Z,68.87
2019-05-10T07:17:20.757Z,68.56
2019-05-10T07:18:22.650Z,69.27
2019-05-10T07:19:19.721Z,69.37
2019-05-10T07:20:23.608Z,68.87
2019-05-10T07:21:20.707Z,68.97
2019-05-10T07:22:21.826Z,69.48
2019-05-10T07:23:20.677Z,69.98
2019-05-10T07:24:25.347Z,69.88
2019-05-10T07:25:20.656Z,70.59
2019-05-10T07:26:23.962Z,70.83
2019-05-10T07:27:20.650Z,71.40
2019-05-10T07:28:19.635Z,71.30
2019-05-10T07:29:29.794Z,71.40
2019-05-10T07:30:20.602Z,71.53
2019-05-10T07:31:23.356Z,73.32
2019-05-10T07:32:22.244Z,73.25
2019-05-10T07:33:19.577Z,72.55
2019-05-10T07:34:19.573Z,73.63
2019-05-10T07:35:19.549Z,73.43
2019-05-10T07:36:20.899Z,73.12
2019-05-10T07:37:20.539Z,72.88
2019-05-10T07:38:23.868Z,72.78
2019-05-10T07:39:20.516Z,72.08
2019-05-10T07:40:19.500Z,71.57
2019-05-10T07:41:26.734Z,71.37
2019-05-10T07:42:20.484Z,71.77
2019-05-10T07:43:26.663Z,72.68
2019-05-10T07:44:20.470Z,73.05
2019-05-10T07:45:25.578Z,72.55
2019-05-10T07:46:20.433Z,71.20
2019-05-10T07:47:23.798Z,70.62
2019-05-10T07:48:23.179Z,70.83
2019-05-10T07:49:23.936Z,69.92
2019-05-10T07:50:20.387Z,70.83
2019-05-10T07:51:22.833Z,70.52
2019-05-10T07:52:20.369Z,71.80
2019-05-10T07:53:23.011Z,71.17
2019-05-10T07:54:20.361Z,71.77
2019-05-10T07:55:27.834Z,71.17
2019-05-10T07:56:20.345Z,69.65
2019-05-10T07:57:24.619Z,68.33
2019-05-10T07:58:20.334Z,68.63
2019-05-10T07:59:21.590Z,68.03
2019-05-10T08:00:20.284Z,68.54
2019-05-10T08:01:30.477Z,70.42
2019-05-10T08:02:20.260Z,68.27
2019-05-10T08:03:23.686Z,67.76
2019-05-10T08:04:27.984Z,68.07
2019-05-10T08:05:20.227Z,66.35
2019-05-10T08:06:19.427Z,65.78
2019-05-10T08:07:19.237Z,66.89
2019-05-10T08:08:19.402Z,67.02
2019-05-10T08:09:19.436Z,67.63
2019-05-10T08:10:21.448Z,69.95
2019-05-10T08:11:28.605Z,69.55
2019-05-10T08:12:19.586Z,70.15
2019-05-10T08:13:23.374Z,71.57
2019-05-10T08:14:20.140Z,68.13
2019-05-10T08:15:19.630Z,69.51
2019-05-10T08:16:22.653Z,66.28
2019-05-10T08:17:19.305Z,67.29
2019-05-10T08:18:21.184Z,66.28
2019-05-10T08:19:20.073Z,65.78
2019-05-10T08:20:31.151Z,66.89
2019-05-10T08:21:23.842Z,67.60
2019-05-10T08:22:20.041Z,68.30
2019-05-10T08:23:23.775Z,65.88
2019-05-10T08:24:22.176Z,66.18
2019-05-10T08:25:19.012Z,67.22
2019-05-10T08:26:22.420Z,66.99
2019-05-10T08:27:19.992Z,67.49
2019-05-10T08:28:18.977Z,68.30
2019-05-10T08:29:18.972Z,68.67
2019-05-10T08:30:26.362Z,68.54
2019-05-10T08:31:22.195Z,66.12
2019-05-10T08:32:19.266Z,66.52
2019-05-10T08:33:18.922Z,66.12
2019-05-10T08:34:18.911Z,66.12
2019-05-10T08:35:18.962Z,66.08
2019-05-10T08:36:18.892Z,63.67
2019-05-10T08:37:30.747Z,65.99
2019-05-10T08:38:21.900Z,62.26
2019-05-10T08:39:18.859Z,63.34
2019-05-10T08:40:19.614Z,62.58
2019-05-10T08:41:22.185Z,62.59
2019-05-10T08:42:34.660Z,62.13
2019-05-10T08:43:21.811Z,59.98
2019-05-10T08:44:21.143Z,60.91
2019-05-10T08:45:18.799Z,61.85
2019-05-10T08:46:19.333Z,61.34
2019-05-10T08:47:25.059Z,59.88
2019-05-10T08:48:19.790Z,58.89
2019-05-10T08:49:22.133Z,60.85
2019-05-10T08:50:34.496Z,58.36
2019-05-10T08:51:19.728Z,54.97
2019-05-10T08:52:19.437Z,58.47
2019-05-10T08:53:19.716Z,59.60
2019-05-10T08:54:18.735Z,60.33
2019-05-10T08:55:18.694Z,59.36
2019-05-10T08:56:21.631Z,61.53
2019-05-10T08:57:19.665Z,61.43
2019-05-10T08:58:21.614Z,63.98
2019-05-10T08:59:23.747Z,61.89
2019-05-10T09:00:40.177Z,62.52
2019-05-10T09:01:27.680Z,63.93
2019-05-10T09:02:23.035Z,65.75
2019-05-10T09:03:19.600Z,65.88
2019-05-10T09:04:18.621Z,65.68
2019-05-10T09:05:22.582Z,63.90
2019-05-10T09:06:21.874Z,64.40
2019-05-10T09:07:18.804Z,63.42
2019-05-10T09:08:20.178Z,63.73
2019-05-10T09:09:19.034Z,64.94
2019-05-10T09:10:18.619Z,64.06
2019-05-10T09:11:18.603Z,64.97
2019-05-10T09:12:19.148Z,64.59
2019-05-10T09:13:18.984Z,65.81
2019-05-10T09:14:19.918Z,64.49
2019-05-10T09:15:18.496Z,64.49
2019-05-10T09:16:19.307Z,65.20
2019-05-10T09:17:23.601Z,64.67
2019-05-10T09:18:19.447Z,63.42
2019-05-10T09:19:19.061Z,63.70
2019-05-10T09:20:25.975Z,64.07
2019-05-10T09:21:21.740Z,63.43
2019-05-10T09:22:26.027Z,63.64
2019-05-10T09:23:22.698Z,62.70
2019-05-10T09:24:19.551Z,61.96
2019-05-10T09:25:23.487Z,59.76
2019-05-10T09:26:19.871Z,57.12
2019-05-10T09:27:22.320Z,57.50
2019-05-10T09:28:18.333Z,57.42
2019-05-10T09:29:18.322Z,58.55
2019-05-10T09:30:18.691Z,59.08
2019-05-10T09:31:22.004Z,58.91
2019-05-10T09:32:23.390Z,59.11
2019-05-10T09:33:19.280Z,59.24
2019-05-10T09:34:23.822Z,61.25
2019-05-10T09:35:19.259Z,59.67
2019-05-10T09:36:23.138Z,59.80
2019-05-10T09:37:19.238Z,61.35
2019-05-10T09:38:18.231Z,61.75
2019-05-10T09:39:22.698Z,61.68
2019-05-10T09:40:19.213Z,62.21
2019-05-10T09:41:18.199Z,63.12
2019-05-10T09:42:25.456Z,63.96
2019-05-10T09:43:21.288Z,64.29
2019-05-10T09:44:18.315Z,65.20
2019-05-10T09:45:18.156Z,66.24
2019-05-10T09:46:18.139Z,67.25
2019-05-10T09:47:18.173Z,67.59
2019-05-10T09:48:18.191Z,68.30
2019-05-10T09:49:18.632Z,68.16
2019-05-10T09:50:18.098Z,69.31
2019-05-10T09:51:19.235Z,69.21
2019-05-10T09:52:19.092Z,70.73
2019-05-10T09:53:25.456Z,69.71
2019-05-10T09:54:23.357Z,70.12
2019-05-10T09:55:19.052Z,70.69
2019-05-10T09:56:18.040Z,69.89
2019-05-10T09:57:18.050Z,69.38
2019-05-10T09:58:22.136Z,69.98
2019-05-10T09:59:18.009Z,70.39
2019-05-10T10:00:17.991Z,69.62
2019-05-10T10:01:21.419Z,69.68
2019-05-10T10:02:18.932Z,70.76
2019-05-10T10:03:17.978Z,71.23
2019-05-10T10:04:20.245Z,69.55
2019-05-10T10:05:18.004Z,68.44
2019-05-10T10:06:17.931Z,68.64
2019-05-10T10:07:19.048Z,67.23
2019-05-10T10:08:17.915Z,67.23
2019-05-10T10:09:17.924Z,67.70
2019-05-10T10:10:26.480Z,65.99
2019-05-10T10:11:18.915Z,65.28
2019-05-10T10:12:17.865Z,64.30
2019-05-10T10:13:33.990Z,65.71
2019-05-10T10:14:18.857Z,64.17
2019-05-10T10:15:28.335Z,63.53
2019-05-10T10:16:19.257Z,62.22
2019-05-10T10:17:20.472Z,61.16
2019-05-10T10:18:22.012Z,61.53
2019-05-10T10:19:21.380Z,60.85
2019-05-10T10:20:18.779Z,60.78
2019-05-10T10:21:19.033Z,61.89
2019-05-10T10:22:19.819Z,61.52
2019-05-10T10:23:17.747Z,61.92
2019-05-10T10:24:20.232Z,62.25
2019-05-10T10:25:17.780Z,62.85
2019-05-10T10:26:22.051Z,63.46
2019-05-10T10:27:17.705Z,63.46
2019-05-10T10:28:19.982Z,63.96
2019-05-10T10:29:17.704Z,64.47
2019-05-10T10:30:21.197Z,63.76
2019-05-10T10:31:27.079Z,64.47
2019-05-10T10:32:18.653Z,65.58
2019-05-10T10:33:24.474Z,64.47
2019-05-10T10:34:18.654Z,63.46
2019-05-10T10:35:23.148Z,63.93
2019-05-10T10:36:18.612Z,63.53
2019-05-10T10:37:23.314Z,63.13
2019-05-10T10:38:18.585Z,64.95
2019-05-10T10:39:22.789Z,62.22
2019-05-10T10:40:18.564Z,62.02
2019-05-10T10:41:25.808Z,62.12
2019-05-10T10:42:18.540Z,61.61
2019-05-10T10:43:18.036Z,60.94
2019-05-10T10:44:18.174Z,61.04
2019-05-10T10:45:17.534Z,62.18
2019-05-10T10:46:19.739Z,63.26
2019-05-10T10:47:18.017Z,61.85
2019-05-10T10:48:17.981Z,62.25
2019-05-10T10:49:17.833Z,62.73
2019-05-10T10:50:17.540Z,61.14
2019-05-10T10:51:18.196Z,61.85
2019-05-10T10:52:17.443Z,61.85
2019-05-10T10:53:17.999Z,61.55
2019-05-10T10:54:17.741Z,62.28
2019-05-10T10:55:18.700Z,61.88
2019-05-10T10:56:17.725Z,60.87
2019-05-10T10:57:18.012Z,61.47
2019-05-10T10:58:18.571Z,60.77
2019-05-10T10:59:18.291Z,60.87
2019-05-10T11:00:22.988Z,59.66
2019-05-10T11:01:24.709Z,59.45
2019-05-10T11:02:32.861Z,59.96
2019-05-10T11:03:18.341Z,59.35
2019-05-10T11:04:17.304Z,61.07
2019-05-10T11:05:17.286Z,61.24
2019-05-10T11:06:17.278Z,60.84
2019-05-10T11:07:17.277Z,61.41
2019-05-10T11:08:17.252Z,63.03
2019-05-10T11:09:17.243Z,61.72
2019-05-10T11:10:19.242Z,60.71
2019-05-10T11:11:17.219Z,58.69
2019-05-10T11:12:21.071Z,59.67
2019-05-10T11:13:29.022Z,58.06
2019-05-10T11:14:20.596Z,56.57
2019-05-10T11:15:23.078Z,55.54
2019-05-10T11:16:20.642Z,56.68
2019-05-10T11:17:17.201Z,55.66
2019-05-10T11:18:17.149Z,55.46
2019-05-10T11:19:17.142Z,56.27
2019-05-10T11:20:17.133Z,58.29
2019-05-10T11:21:17.116Z,57.38
2019-05-10T11:22:17.114Z,56.68
2019-05-10T11:23:17.090Z,57.98
2019-05-10T11:24:18.665Z,57.78
2019-05-10T11:25:17.081Z,58.89
2019-05-10T11:26:17.061Z,56.48
2019-05-10T11:27:17.388Z,58.69
2019-05-10T11:28:17.049Z,58.29
2019-05-10T11:29:25.412Z,57.89
2019-05-10T11:30:18.013Z,59.09
2019-05-10T11:31:17.008Z,59.09
2019-05-10T11:32:17.188Z,59.30
2019-05-10T11:33:29.060Z,61.82
2019-05-10T11:34:17.972Z,59.60
2019-05-10T11:35:24.652Z,60.10
2019-05-10T11:36:17.953Z,60.00
2019-05-10T11:37:18.428Z,59.33
2019-05-10T11:38:17.932Z,60.51
2019-05-10T11:39:25.995Z,61.52
2019-05-10T11:40:28.047Z,61.41
2019-05-10T11:41:22.148Z,61.35
2019-05-10T11:42:17.890Z,61.35
2019-05-10T11:43:17.393Z,61.41
2019-05-10T11:44:17.869Z,59.30
2019-05-10T11:45:16.860Z,59.00
2019-05-10T11:46:16.849Z,59.37
2019-05-10T11:47:24.089Z,58.23
2019-05-10T11:48:17.822Z,59.55
2019-05-10T11:49:16.820Z,57.63
2019-05-10T11:50:28.677Z,58.61
2019-05-10T11:51:17.793Z,57.24
2019-05-10T11:52:16.807Z,55.11
2019-05-10T11:53:17.307Z,54.88
2019-05-10T11:54:16.764Z,54.88
2019-05-10T11:55:16.757Z,54.38
2019-05-10T11:56:16.740Z,54.68
2019-05-10T11:57:16.728Z,54.20
2019-05-10T11:58:16.725Z,54.91
2019-05-10T11:59:16.756Z,54.15
2019-05-10T12:00:25.567Z,54.63
2019-05-10T12:01:20.831Z,53.52
2019-05-10T12:02:36.994Z,54.13
2019-05-10T12:03:22.377Z,54.33
2019-05-10T12:04:24.059Z,51.81
2019-05-10T12:05:20.512Z,50.89
2019-05-10T12:06:17.634Z,51.61
2019-05-10T12:07:16.626Z,51.01
2019-05-10T12:08:16.611Z,51.92
2019-05-10T12:09:16.599Z,52.92
2019-05-10T12:10:21.137Z,53.34
2019-05-10T12:11:29.345Z,52.04
2019-05-10T12:12:29.536Z,51.86
2019-05-10T12:13:20.866Z,52.17
2019-05-10T12:14:17.560Z,51.97
2019-05-10T12:15:24.796Z,52.39
2019-05-10T12:16:17.912Z,52.89
2019-05-10T12:17:16.506Z,53.30
2019-05-10T12:18:16.496Z,53.12
2019-05-10T12:19:20.936Z,53.22
2019-05-10T12:20:17.013Z,54.43
2019-05-10T12:21:16.493Z,54.35
2019-05-10T12:22:16.452Z,53.67
2019-05-10T12:23:22.884Z,54.41
2019-05-10T12:24:39.007Z,54.63
2019-05-10T12:26:30.549Z,54.86
2019-05-10T12:27:25.756Z,54.00
2019-05-10T12:29:26.147Z,55.16
2019-05-10T12:30:29.439Z,55.36
2019-05-10T12:31:27.161Z,55.80
2019-05-10T12:32:26.947Z,55.40
2019-05-10T12:33:27.776Z,56.51
2019-05-10T12:34:26.097Z,55.82
2019-05-10T12:35:26.405Z,56.71
2019-05-10T12:36:27.724Z,56.61
2019-05-10T12:37:26.068Z,55.82
2019-05-10T12:38:29.491Z,56.30
2019-05-10T12:39:27.045Z,56.10
2019-05-10T12:40:26.170Z,57.01
2019-05-10T12:41:26.015Z,55.40
2019-05-10T12:42:26.011Z,55.90
2019-05-10T12:43:25.999Z,55.09
2019-05-10T12:44:25.984Z,55.40
2019-05-10T12:45:25.979Z,55.80
2019-05-10T12:46:26.010Z,56.20
2019-05-10T12:47:25.949Z,56.30
2019-05-10T12:48:25.948Z,55.93
2019-05-10T12:49:25.934Z,55.62
2019-05-10T12:50:25.923Z,55.52
2019-05-10T12:51:25.916Z,55.52
2019-05-10T12:52:28.631Z,55.44
2019-05-10T12:53:25.893Z,56.63
2019-05-10T12:54:25.877Z,56.94